Mc Gregor, Iowa
Current Conditions -  °F | °C
As of 7:35 PM on Friday 28 Nov 2014 (Local Time) from KPDC Reporting Station
Clear Clear  
Wind Chill: 23°   Ceiling: Unl
Heat Index: 28°   Visibility: 10mi
Dew Point: 22°   Wind: 5mph
Humidity: 77%   Direction: 120°ESE
Pressure: 29.86"   Gusts: NA
Location:  43.0056°N, 91.2139°W
Report Text: KPDC 290135Z AUTO 12004KT 10SM CLR M02/M05 A2986 RMK AO2 T10201055
Loading
Personal Weather Stations






























Interactive Weather Map New forecast layout! Learn more

10-Day Weather Forecast

Advertisements
Track Severe Weather on mobile